Terminal Aerodrome Forecast
Issued by NWS

Home | Current Version | Previous Version | Text Only | Print | Product List | Glossary On
Versions: 1 2 3 4 5 6 7 8 9 10 11 12 13
000
FTUS45 KREV 210500
TAFTRK
TAF
KTRK 210520Z 2106/2206 VRB03KT P6SM SCT180
     FM211800 21018G28KT P6SM BKN100 OVC160
     FM220200 22009G17KT P6SM BKN080 OVC100
      AMD NOT SKED 2106/2112=

USA.gov is the U.S. government's official web portal to all federal, state and local government web resources and services.